Time;durP1;ratioP1;P1;durP2;ratioP2;P2;SDS_P1;SDS_P2;PMS_P1;PMS_P2;Temp;Humidity;BMP_temperature;BMP_pressure;BME280_temperature;BME280_humidity;BME280_pressure;Samples;Min_cycle;Max_cycle;Signal;HPM_P1;HPM_P2
2021/12/24 00:00:42;;;;;;;29.20;13.93;;;5.70;99.90;;;;;;5031091;28;20041;-82
2021/12/24 00:03:08;;;;;;;19.33;10.43;;;5.80;99.90;;;;;;5046755;28;20311;-83
2021/12/24 00:05:35;;;;;;;14.88;7.97;;;5.70;99.90;;;;;;5031298;28;20045;-83
2021/12/24 00:08:01;;;;;;;29.10;11.85;;;5.80;99.90;;;;;;5030411;28;20080;-82
2021/12/24 00:10:27;;;;;;;15.63;8.65;;;5.70;99.90;;;;;;5031272;28;20052;-83
2021/12/24 00:13:04;;;;;;;23.17;10.05;;;5.70;99.90;;;;;;5030515;28;20076;-83
2021/12/24 00:18:03;;;;;;;23.52;11.73;;;5.80;99.90;;;;;;5031303;28;20530;-80
2021/12/24 00:36:17;;;;;;;17.08;9.52;;;5.90;99.90;;;;;;5033255;28;20103;-82
2021/12/24 00:38:43;;;;;;;15.10;8.60;;;6.00;99.90;;;;;;5014189;28;20069;-79
2021/12/24 00:41:09;;;;;;;9.73;5.18;;;6.00;99.90;;;;;;4997899;28;20057;-82
2021/12/24 00:43:35;;;;;;;21.00;10.85;;;6.00;99.90;;;;;;5033448;28;20444;-83
2021/12/24 00:46:00;;;;;;;16.35;10.02;;;6.00;99.90;;;;;;5002558;28;20081;-80
2021/12/24 00:48:26;;;;;;;20.98;10.02;;;6.00;99.90;;;;;;5017497;28;20044;-80
2021/12/24 00:56:14;;;;;;;12.45;6.72;;;6.10;99.90;;;;;;5034349;28;20079;-80
2021/12/24 00:58:41;;;;;;;17.00;8.60;;;6.00;99.90;;;;;;5014633;28;20042;-79
2021/12/24 01:01:09;;;;;;;8.43;4.95;;;6.10;99.90;;;;;;4998739;28;20416;-83
2021/12/24 01:03:35;;;;;;;10.60;6.05;;;6.10;99.90;;;;;;5033249;28;20046;-83
2021/12/24 01:06:01;;;;;;;8.00;4.70;;;6.20;99.90;;;;;;5034050;28;20053;-79
2021/12/24 01:08:27;;;;;;;14.32;8.75;;;6.20;99.90;;;;;;5050558;28;20056;-79
2021/12/24 01:10:56;;;;;;;13.20;6.80;;;6.10;99.90;;;;;;5050349;28;20049;-80
2021/12/24 01:13:24;;;;;;;9.27;5.30;;;6.20;99.90;;;;;;5017378;28;20077;-80
2021/12/24 01:16:01;;;;;;;16.73;9.27;;;6.20;99.90;;;;;;5033696;28;20053;-80
2021/12/24 01:24:04;;;;;;;24.52;10.00;;;6.20;99.90;;;;;;5033563;28;20072;-80
2021/12/24 01:26:52;;;;;;;15.85;8.23;;;6.20;99.90;;;;;;5050671;28;20053;-83
2021/12/24 01:42:44;;;;;;;17.58;7.85;;;6.50;99.90;;;;;;5049660;28;20160;-83
2021/12/24 01:45:30;;;;;;;15.38;7.78;;;6.50;99.90;;;;;;5033401;28;20049;-82
2021/12/24 01:48:00;;;;;;;9.73;5.40;;;6.60;99.90;;;;;;5033036;28;20096;-79
2021/12/24 01:50:28;;;;;;;5.93;3.33;;;6.60;99.90;;;;;;5033370;28;20041;-83
2021/12/24 01:52:55;;;;;;;8.77;4.65;;;6.70;99.90;;;;;;5016329;28;20057;-83
2021/12/24 01:55:22;;;;;;;7.85;4.78;;;6.80;99.90;;;;;;5015947;28;20037;-83
2021/12/24 01:57:48;;;;;;;10.63;5.18;;;6.60;99.90;;;;;;5049565;28;20377;-80
2021/12/24 02:00:22;;;;;;;9.65;4.40;;;6.80;99.90;;;;;;5033084;28;20120;-83
2021/12/24 02:02:48;;;;;;;11.80;5.95;;;6.70;99.90;;;;;;5032613;28;20048;-83
2021/12/24 02:05:14;;;;;;;6.05;3.28;;;6.70;99.90;;;;;;5033338;28;20451;-83
2021/12/24 02:07:40;;;;;;;6.93;3.83;;;6.70;99.90;;;;;;5016610;28;20544;-79
2021/12/24 02:10:09;;;;;;;6.50;3.70;;;6.70;99.90;;;;;;5016185;28;20073;-80
2021/12/24 02:12:36;;;;;;;9.57;4.40;;;6.70;99.90;;;;;;5016292;28;20124;-83
2021/12/24 02:15:11;;;;;;;8.77;4.40;;;6.80;99.90;;;;;;5032741;28;20046;-82
2021/12/24 02:28:40;;;;;;;6.88;3.50;;;6.90;99.90;;;;;;5002431;28;20042;-83
2021/12/24 02:31:09;;;;;;;8.55;4.53;;;6.90;99.90;;;;;;5002721;28;20045;-83
2021/12/24 02:33:35;;;;;;;5.90;3.60;;;6.90;99.90;;;;;;5032354;28;20041;-79
2021/12/24 02:36:01;;;;;;;4.60;2.53;;;6.90;99.90;;;;;;5032267;28;20049;-82
2021/12/24 02:38:27;;;;;;;8.93;3.97;;;6.80;99.90;;;;;;5048943;28;20307;-84
2021/12/24 02:40:53;;;;;;;7.43;3.78;;;6.80;99.90;;;;;;5048809;28;20073;-83
2021/12/24 02:43:22;;;;;;;3.42;1.83;;;7.00;99.90;;;;;;5031797;28;20053;-79
2021/12/24 02:45:49;;;;;;;9.13;4.85;;;6.90;99.90;;;;;;5032060;28;20119;-82
2021/12/24 02:56:25;;;;;;;11.75;5.65;;;7.00;99.90;;;;;;5032167;28;20136;-83
2021/12/24 02:58:51;;;;;;;14.70;6.40;;;7.00;99.90;;;;;;5016498;28;20563;-83
2021/12/24 03:01:20;;;;;;;9.35;4.63;;;7.00;99.90;;;;;;5016205;28;20042;-80
2021/12/24 03:03:48;;;;;;;6.93;3.33;;;7.00;99.90;;;;;;5031585;28;20041;-83
2021/12/24 03:06:19;;;;;;;9.13;4.80;;;7.00;99.90;;;;;;5047740;28;20045;-80
2021/12/24 03:08:45;;;;;;;12.32;5.80;;;6.90;99.90;;;;;;5015228;28;20045;-83
2021/12/24 03:11:11;;;;;;;8.68;4.53;;;7.00;99.90;;;;;;5048852;28;20504;-82
2021/12/24 03:13:39;;;;;;;13.77;5.78;;;7.10;99.90;;;;;;5048034;28;20049;-84
2021/12/24 03:16:05;;;;;;;10.60;5.00;;;7.20;99.90;;;;;;5032308;28;20381;-80
2021/12/24 03:18:34;;;;;;;27.35;8.25;;;7.20;99.90;;;;;;5048016;28;20120;-79
2021/12/24 03:23:37;;;;;;;39.90;11.17;;;7.20;99.90;;;;;;5015688;28;20401;-79
2021/12/24 03:26:03;;;;;;;26.52;6.80;;;7.20;99.90;;;;;;5031759;28;20045;-80
2021/12/24 03:28:29;;;;;;;28.35;8.82;;;7.20;99.90;;;;;;5030840;28;20056;-83
2021/12/24 03:30:55;;;;;;;67.82;12.00;;;7.20;99.90;;;;;;5048269;28;20443;-83
2021/12/24 03:33:21;;;;;;;29.83;7.80;;;7.20;99.90;;;;;;5030921;28;20476;-80
2021/12/24 03:35:46;;;;;;;33.20;8.65;;;7.30;99.90;;;;;;4998873;28;20049;-83
2021/12/24 03:38:12;;;;;;;44.47;10.38;;;7.30;99.90;;;;;;5014630;28;20033;-84
2021/12/24 03:40:38;;;;;;;13.55;5.50;;;7.30;99.90;;;;;;5031583;28;20046;-79
2021/12/24 03:43:03;;;;;;;96.78;13.00;;;7.30;99.90;;;;;;5031146;28;20041;-79
2021/12/24 03:45:37;;;;;;;19.17;6.18;;;7.40;99.90;;;;;;5015246;28;20065;-84
2021/12/24 03:48:14;;;;;;;49.35;10.73;;;7.30;99.90;;;;;;5030986;28;20128;-80
2021/12/24 03:51:07;;;;;;;91.78;13.02;;;7.40;99.90;;;;;;5015037;28;20053;-84
2021/12/24 03:56:15;;;;;;;21.70;7.22;;;7.50;99.90;;;;;;5011837;28;20527;-79
2021/12/24 03:58:41;;;;;;;56.17;12.27;;;7.50;99.90;;;;;;5005051;28;20073;-79
2021/12/24 04:01:07;;;;;;;33.63;9.48;;;7.60;99.90;;;;;;5014935;28;20049;-84
2021/12/24 04:03:33;;;;;;;52.30;11.50;;;7.60;99.90;;;;;;5047867;28;20455;-84
2021/12/24 04:05:58;;;;;;;37.70;10.90;;;7.60;99.90;;;;;;5047561;28;20124;-83
2021/12/24 04:08:24;;;;;;;29.63;9.50;;;7.60;99.90;;;;;;5014703;28;20120;-83
2021/12/24 04:10:50;;;;;;;29.83;9.63;;;7.60;99.90;;;;;;5047821;28;20049;-82
2021/12/24 04:13:16;;;;;;;12.07;5.53;;;7.60;99.90;;;;;;5014749;28;20049;-82
2021/12/24 04:15:43;;;;;;;29.30;9.05;;;7.70;99.90;;;;;;5014574;28;20048;-83
2021/12/24 04:18:23;;;;;;;33.25;10.52;;;7.70;99.90;;;;;;5033875;28;20511;-83
2021/12/24 04:26:18;;;;;;;22.38;8.00;;;7.90;99.90;;;;;;5037831;28;20103;-83
2021/12/24 04:28:44;;;;;;;47.80;15.38;;;7.80;99.90;;;;;;5034211;28;20439;-79
2021/12/24 04:31:10;;;;;;;23.52;9.80;;;7.80;99.90;;;;;;5002392;28;20060;-80
2021/12/24 04:33:37;;;;;;;24.83;11.07;;;7.90;99.90;;;;;;5017783;28;20046;-84
2021/12/24 04:36:41;;;;;;;22.90;9.50;;;8.00;99.90;;;;;;5035369;28;20050;-80
2021/12/24 05:03:35;;;;;;;34.45;12.48;;;7.90;99.90;;;;;;5019696;28;20129;-84
2021/12/24 05:06:16;;;;;;;27.02;13.88;;;8.00;99.90;;;;;;5050860;28;20096;-83
2021/12/24 05:11:14;;;;;;;34.90;14.32;;;8.00;99.90;;;;;;5034496;28;20088;-80
2021/12/24 05:13:40;;;;;;;37.25;14.52;;;7.90;99.90;;;;;;5017754;28;20454;-84
2021/12/24 05:21:32;;;;;;;29.08;13.18;;;8.00;99.90;;;;;;5050545;28;20057;-79
2021/12/24 05:24:09;;;;;;;37.10;14.40;;;8.00;99.90;;;;;;5033463;28;20038;-80
2021/12/24 05:26:36;;;;;;;29.38;14.52;;;8.00;99.90;;;;;;5034001;28;20033;-85
2021/12/24 05:29:03;;;;;;;27.75;13.05;;;8.10;99.90;;;;;;5032451;28;20103;-80
2021/12/24 05:31:29;;;;;;;23.90;10.85;;;8.10;99.90;;;;;;5034335;28;20500;-81
2021/12/24 05:33:55;;;;;;;27.05;12.48;;;8.00;99.90;;;;;;5033045;28;20072;-81
2021/12/24 05:36:21;;;;;;;33.17;14.82;;;8.00;99.90;;;;;;5050363;28;20045;-80
2021/12/24 05:38:47;;;;;;;20.77;10.20;;;8.00;99.90;;;;;;5000455;28;20106;-80
2021/12/24 05:41:14;;;;;;;25.02;12.00;;;8.00;99.90;;;;;;5000619;28;20128;-84
2021/12/24 05:43:41;;;;;;;30.73;11.57;;;8.00;99.90;;;;;;5032677;28;20152;-84
2021/12/24 05:46:06;;;;;;;20.35;9.10;;;8.00;99.90;;;;;;5050504;28;20092;-83
2021/12/24 05:48:32;;;;;;;29.60;11.90;;;7.90;99.90;;;;;;5032997;28;20045;-84
2021/12/24 05:50:58;;;;;;;22.45;10.38;;;7.90;99.90;;;;;;5017033;28;20042;-79
2021/12/24 05:53:25;;;;;;;27.02;10.57;;;8.10;99.90;;;;;;5016866;28;20080;-84
2021/12/24 05:55:51;;;;;;;20.95;8.65;;;7.80;99.90;;;;;;5031983;28;20041;-83
2021/12/24 05:58:18;;;;;;;24.45;9.55;;;7.80;99.90;;;;;;5033316;28;20095;-84
2021/12/24 06:00:44;;;;;;;17.80;8.57;;;7.90;99.90;;;;;;5016412;28;20546;-79
2021/12/24 06:03:11;;;;;;;27.52;10.45;;;7.90;99.90;;;;;;5032848;28;20041;-84
2021/12/24 06:05:37;;;;;;;14.90;6.40;;;7.90;99.90;;;;;;5032867;28;20041;-79
2021/12/24 06:08:05;;;;;;;17.80;7.75;;;7.90;99.90;;;;;;5016693;28;20045;-79
2021/12/24 06:10:31;;;;;;;24.95;9.27;;;7.90;99.90;;;;;;5032435;28;20046;-83
2021/12/24 06:12:57;;;;;;;17.40;6.22;;;7.80;99.90;;;;;;5049862;28;20496;-84
2021/12/24 06:15:25;;;;;;;22.25;8.18;;;7.80;99.90;;;;;;5032731;28;20041;-79
2021/12/24 06:17:56;;;;;;;27.13;9.30;;;8.00;99.90;;;;;;5016443;28;20049;-83
2021/12/24 06:20:23;;;;;;;22.30;8.05;;;7.80;99.90;;;;;;5033090;28;20049;-84
2021/12/24 06:22:49;;;;;;;19.30;7.45;;;7.80;99.90;;;;;;5032788;28;20053;-79
2021/12/24 06:25:17;;;;;;;19.83;7.10;;;7.90;99.90;;;;;;5015420;28;20041;-84
2021/12/24 06:27:44;;;;;;;28.35;7.00;;;7.90;99.90;;;;;;5016374;28;20094;-79
2021/12/24 06:30:12;;;;;;;22.15;6.88;;;7.90;99.90;;;;;;5015574;28;20045;-79
2021/12/24 06:32:37;;;;;;;18.52;6.07;;;7.80;99.90;;;;;;5032953;28;20117;-83
2021/12/24 06:35:05;;;;;;;21.00;6.75;;;7.80;99.90;;;;;;5049223;28;20053;-80
2021/12/24 06:37:31;;;;;;;14.75;5.55;;;7.80;99.90;;;;;;5032590;28;20052;-84
2021/12/24 06:39:57;;;;;;;17.85;4.82;;;8.00;99.90;;;;;;5015384;28;20179;-79
2021/12/24 06:42:23;;;;;;;30.38;6.32;;;7.70;99.90;;;;;;5032527;28;20075;-79
2021/12/24 06:44:48;;;;;;;28.30;7.15;;;7.80;99.90;;;;;;5031150;28;20060;-84
2021/12/24 06:47:15;;;;;;;28.05;7.03;;;7.80;99.90;;;;;;5032433;28;20416;-84
2021/12/24 06:49:40;;;;;;;20.55;7.45;;;7.70;99.90;;;;;;5048106;28;20069;-79
2021/12/24 06:52:07;;;;;;;16.50;5.85;;;7.70;99.90;;;;;;5015720;28;20504;-83
2021/12/24 06:54:33;;;;;;;26.27;8.05;;;7.70;99.90;;;;;;5031957;28;20033;-80
2021/12/24 06:57:00;;;;;;;25.60;7.90;;;7.70;99.90;;;;;;5015630;28;20057;-84
2021/12/24 06:59:27;;;;;;;26.70;8.63;;;7.80;99.90;;;;;;5031897;28;20120;-80
2021/12/24 07:01:53;;;;;;;25.70;7.57;;;7.60;99.90;;;;;;5015620;28;20443;-84
2021/12/24 07:04:18;;;;;;;21.48;8.02;;;7.70;99.90;;;;;;5031956;28;20091;-79
2021/12/24 07:06:45;;;;;;;22.30;7.22;;;7.70;99.90;;;;;;5048185;28;20038;-79
2021/12/24 07:09:15;;;;;;;23.95;10.25;;;7.60;99.90;;;;;;5031689;28;20088;-84
2021/12/24 07:11:42;;;;;;;23.15;7.15;;;7.70;99.90;;;;;;5048708;28;20139;-84
2021/12/24 07:14:08;;;;;;;19.77;6.75;;;7.70;99.90;;;;;;5014965;28;20037;-84
2021/12/24 07:16:34;;;;;;;15.93;6.30;;;7.60;99.90;;;;;;5031474;28;20037;-79
2021/12/24 07:19:00;;;;;;;11.73;6.03;;;7.70;99.90;;;;;;5048452;28;20069;-84
2021/12/24 07:21:27;;;;;;;16.60;5.68;;;7.60;99.90;;;;;;5015286;28;20399;-84
2021/12/24 07:23:53;;;;;;;14.75;5.28;;;7.60;99.90;;;;;;5048070;28;20435;-84
2021/12/24 07:26:19;;;;;;;23.25;8.90;;;7.50;99.90;;;;;;5031457;28;20079;-83
2021/12/24 07:28:45;;;;;;;15.38;6.70;;;7.60;99.90;;;;;;5015507;28;20127;-79
2021/12/24 07:31:10;;;;;;;12.35;6.40;;;7.50;99.90;;;;;;5031031;28;20049;-79
2021/12/24 07:33:36;;;;;;;14.07;6.03;;;7.70;99.90;;;;;;5048041;28;20132;-79
2021/12/24 07:36:02;;;;;;;19.30;7.57;;;7.50;99.90;;;;;;5014205;28;20045;-84
2021/12/24 07:38:28;;;;;;;15.45;5.05;;;7.40;99.90;;;;;;5031833;28;20053;-83
2021/12/24 07:40:53;;;;;;;10.68;4.72;;;7.50;99.90;;;;;;5014999;28;20047;-83
2021/12/24 07:43:19;;;;;;;12.57;4.80;;;7.40;99.90;;;;;;5031041;28;20080;-81
2021/12/24 07:45:46;;;;;;;13.63;4.57;;;7.50;99.90;;;;;;5014965;28;20056;-84
2021/12/24 07:48:15;;;;;;;11.00;3.78;;;7.40;99.90;;;;;;5047288;28;20049;-84
2021/12/24 07:53:15;;;;;;;10.65;3.83;;;7.40;99.90;;;;;;5047113;28;20045;-79
2021/12/24 07:55:41;;;;;;;14.73;4.00;;;7.40;99.90;;;;;;5030894;28;20392;-79
2021/12/24 07:58:08;;;;;;;11.02;4.93;;;7.30;99.90;;;;;;5031506;28;20041;-80
2021/12/24 08:00:35;;;;;;;8.88;3.53;;;7.30;99.90;;;;;;5030995;28;20044;-83
2021/12/24 08:03:02;;;;;;;14.38;4.88;;;7.40;99.90;;;;;;5031165;28;20535;-84
2021/12/24 08:05:28;;;;;;;19.30;6.68;;;7.40;99.90;;;;;;5030887;28;20045;-80
2021/12/24 08:07:54;;;;;;;25.88;8.38;;;7.40;99.90;;;;;;5031310;28;20520;-80
2021/12/24 08:10:23;;;;;;;21.92;5.85;;;7.30;99.90;;;;;;4997653;28;20084;-79
2021/12/24 08:12:50;;;;;;;17.63;6.90;;;7.40;99.90;;;;;;5014972;28;20099;-84
2021/12/24 08:15:17;;;;;;;22.65;7.45;;;7.40;99.90;;;;;;5014494;28;20042;-80
2021/12/24 08:17:44;;;;;;;10.90;4.00;;;7.30;99.90;;;;;;5048073;28;20514;-80
2021/12/24 08:20:11;;;;;;;10.50;3.70;;;7.40;99.90;;;;;;5030731;28;20045;-80
2021/12/24 08:22:37;;;;;;;8.88;3.45;;;7.40;99.90;;;;;;5014385;28;20050;-79
2021/12/24 08:25:06;;;;;;;18.58;6.07;;;7.30;99.90;;;;;;5031230;28;20054;-80
2021/12/24 08:27:34;;;;;;;16.40;4.50;;;7.30;99.90;;;;;;5030350;28;20044;-80
2021/12/24 08:30:00;;;;;;;23.23;6.93;;;7.30;99.90;;;;;;5030589;28;20492;-79
2021/12/24 08:32:26;;;;;;;27.02;7.53;;;7.30;99.90;;;;;;5030451;28;20129;-80
2021/12/24 08:34:53;;;;;;;30.00;7.78;;;7.40;99.90;;;;;;5031191;28;20134;-79
2021/12/24 08:37:19;;;;;;;22.70;7.50;;;7.50;99.90;;;;;;5014164;28;20124;-80
2021/12/24 08:39:44;;;;;;;16.85;5.43;;;7.30;99.90;;;;;;5013415;28;20128;-80
2021/12/24 08:42:10;;;;;;;16.80;5.30;;;7.40;99.90;;;;;;5047334;28;20045;-83
2021/12/24 08:44:37;;;;;;;24.55;5.95;;;7.40;99.90;;;;;;5030837;28;20061;-84
2021/12/24 08:47:05;;;;;;;13.27;4.68;;;7.30;99.90;;;;;;5014532;28;20099;-83
2021/12/24 08:49:31;;;;;;;32.83;7.03;;;7.30;99.90;;;;;;5014846;28;20057;-83
2021/12/24 08:51:57;;;;;;;15.30;5.13;;;7.40;99.90;;;;;;5014428;28;20455;-83
2021/12/24 08:54:24;;;;;;;34.33;9.18;;;7.50;99.90;;;;;;4998526;28;20412;-83
2021/12/24 08:56:51;;;;;;;22.55;6.28;;;7.30;99.90;;;;;;5047429;28;20140;-83
2021/12/24 08:59:17;;;;;;;23.38;5.15;;;7.50;99.90;;;;;;5047525;28;20203;-79
2021/12/24 09:01:43;;;;;;;27.13;7.38;;;7.30;99.90;;;;;;5047311;28;20124;-82
2021/12/24 09:04:13;;;;;;;14.23;3.47;;;7.40;99.90;;;;;;4999053;28;20229;-83
2021/12/24 09:06:39;;;;;;;27.67;7.43;;;7.30;99.90;;;;;;5051206;28;20083;-79
2021/12/24 09:09:07;;;;;;;14.68;3.67;;;7.30;99.90;;;;;;5033586;28;20431;-83
2021/12/24 09:11:38;;;;;;;31.20;7.80;;;7.30;99.90;;;;;;5033109;28;20043;-83
2021/12/24 09:14:04;;;;;;;23.48;6.40;;;7.30;99.90;;;;;;5017169;28;20045;-79
2021/12/24 09:16:33;;;;;;;25.73;8.70;;;7.30;99.90;;;;;;5016801;28;20041;-83
2021/12/24 09:19:04;;;;;;;26.63;7.13;;;7.20;99.90;;;;;;5033810;28;20080;-83
2021/12/24 09:21:30;;;;;;;23.45;5.47;;;7.30;99.90;;;;;;5034011;28;20143;-83
2021/12/24 09:23:57;;;;;;;13.38;4.13;;;7.30;99.90;;;;;;5033738;28;20080;-78
2021/12/24 09:26:28;;;;;;;18.67;5.22;;;7.20;99.90;;;;;;5001520;28;20514;-82
2021/12/24 09:28:57;;;;;;;19.55;7.00;;;7.30;99.90;;;;;;5017326;28;20059;-83
2021/12/24 09:31:24;;;;;;;21.95;7.60;;;7.20;99.90;;;;;;5034116;28;20041;-82
2021/12/24 09:33:50;;;;;;;14.63;6.47;;;7.30;99.90;;;;;;5033913;28;20061;-83
2021/12/24 09:36:23;;;;;;;9.48;3.95;;;7.20;99.90;;;;;;5033618;28;20048;-83
2021/12/24 09:38:49;;;;;;;10.48;5.15;;;7.20;99.90;;;;;;5034085;28;20079;-79
2021/12/24 09:41:15;;;;;;;5.75;2.60;;;7.10;99.90;;;;;;5017274;28;20045;-79
2021/12/24 09:43:41;;;;;;;4.13;2.70;;;6.80;99.90;;;;;;5001181;28;20476;-79
2021/12/24 09:46:07;;;;;;;5.45;3.40;;;6.40;99.90;;;;;;5033571;28;20107;-83
2021/12/24 09:48:32;;;;;;;5.88;3.50;;;6.30;99.90;;;;;;5033615;28;20514;-84
2021/12/24 09:50:58;;;;;;;6.93;4.43;;;6.00;99.90;;;;;;5017093;28;20049;-79
2021/12/24 09:53:24;;;;;;;11.52;5.78;;;5.90;99.90;;;;;;5016824;28;20045;-80
2021/12/24 09:55:50;;;;;;;7.25;4.20;;;5.80;99.90;;;;;;5033356;28;20340;-83
2021/12/24 09:58:16;;;;;;;12.30;7.10;;;5.80;99.90;;;;;;5016789;28;20037;-80
2021/12/24 10:00:41;;;;;;;8.40;4.63;;;5.70;99.90;;;;;;5016813;28;20056;-83
2021/12/24 10:03:07;;;;;;;11.30;5.97;;;5.70;99.90;;;;;;5000405;28;20037;-84
2021/12/24 10:05:41;;;;;;;8.43;4.72;;;5.60;99.90;;;;;;5033293;28;20106;-79
2021/12/24 10:08:22;;;;;;;11.57;5.85;;;5.60;99.90;;;;;;5033186;28;20058;-80
2021/12/24 10:10:51;;;;;;;8.50;5.35;;;5.80;99.90;;;;;;5016618;28;20117;-79
2021/12/24 10:13:30;;;;;;;11.45;6.35;;;5.70;99.90;;;;;;5049114;28;20400;-84
2021/12/24 10:16:06;;;;;;;9.57;4.45;;;5.80;99.90;;;;;;5048787;28;20041;-83
2021/12/24 10:18:42;;;;;;;14.25;5.90;;;5.70;99.90;;;;;;5032846;28;20084;-84
2021/12/24 10:21:11;;;;;;;11.93;5.20;;;5.70;99.90;;;;;;5015900;28;20091;-84
2021/12/24 10:23:44;;;;;;;8.98;4.90;;;5.60;99.90;;;;;;5032783;28;20388;-80
2021/12/24 10:26:18;;;;;;;7.35;4.20;;;5.70;99.90;;;;;;5032308;28;20469;-80
2021/12/24 10:28:56;;;;;;;4.85;2.58;;;5.50;99.90;;;;;;5032419;28;20045;-80
2021/12/24 10:31:39;;;;;;;5.68;3.33;;;5.60;99.90;;;;;;5048975;28;20140;-79
2021/12/24 10:34:11;;;;;;;6.10;3.25;;;5.50;99.90;;;;;;5015463;28;20042;-80
2021/12/24 10:36:49;;;;;;;6.45;3.40;;;5.40;99.90;;;;;;5032126;28;20077;-80
2021/12/24 10:39:16;;;;;;;5.10;3.15;;;5.40;99.90;;;;;;5048650;28;20049;-84
2021/12/24 10:41:44;;;;;;;8.45;4.60;;;5.40;99.90;;;;;;5048646;28;20567;-80
2021/12/24 10:44:20;;;;;;;7.15;4.13;;;5.40;99.90;;;;;;5015450;28;20093;-84
2021/12/24 10:47:04;;;;;;;8.25;4.57;;;5.30;99.90;;;;;;5030747;28;20053;-84
2021/12/24 10:55:00;;;;;;;6.72;4.50;;;5.20;99.90;;;;;;5015189;28;20152;-80
2021/12/24 10:57:31;;;;;;;7.45;4.40;;;5.10;99.90;;;;;;5014619;28;20107;-80
2021/12/24 11:00:20;;;;;;;10.68;5.57;;;5.10;99.90;;;;;;5014414;28;20034;-84
2021/12/24 11:02:59;;;;;;;9.35;5.63;;;5.00;99.90;;;;;;5014014;28;20049;-80
2021/12/24 11:05:32;;;;;;;11.55;6.43;;;5.00;99.90;;;;;;5031024;28;20046;-84
2021/12/24 11:08:00;;;;;;;8.63;5.18;;;5.10;99.90;;;;;;5015083;28;20045;-80
2021/12/24 11:10:29;;;;;;;12.18;6.68;;;5.10;99.90;;;;;;5014663;28;20049;-80
2021/12/24 11:13:07;;;;;;;13.07;6.50;;;5.10;99.90;;;;;;5032021;28;20040;-79
2021/12/24 11:15:47;;;;;;;13.95;7.43;;;5.00;99.90;;;;;;5031064;28;20056;-84
2021/12/24 11:18:15;;;;;;;12.63;7.82;;;4.90;99.90;;;;;;5031203;28;20127;-81
2021/12/24 11:20:41;;;;;;;12.55;7.40;;;5.20;99.90;;;;;;5047390;28;20060;-80
2021/12/24 11:23:08;;;;;;;13.15;6.90;;;4.90;99.90;;;;;;5031497;28;20045;-80
2021/12/24 11:25:46;;;;;;;8.75;5.68;;;5.00;99.90;;;;;;5030711;28;20037;-84
2021/12/24 11:28:14;;;;;;;13.85;7.53;;;5.00;99.90;;;;;;5030476;28;20041;-84
2021/12/24 11:30:44;;;;;;;15.38;7.90;;;5.00;99.90;;;;;;5048589;28;20484;-80
2021/12/24 11:33:14;;;;;;;11.52;7.40;;;5.10;99.90;;;;;;5015245;28;20050;-80
2021/12/24 11:35:41;;;;;;;13.57;7.00;;;5.00;99.90;;;;;;5031817;28;20072;-80
2021/12/24 11:38:07;;;;;;;12.30;7.55;;;5.00;99.90;;;;;;5031614;28;20041;-84
2021/12/24 11:40:32;;;;;;;15.65;8.00;;;5.00;99.90;;;;;;5031683;28;20045;-84
2021/12/24 11:43:03;;;;;;;15.20;7.88;;;4.90;99.90;;;;;;5015295;28;20381;-79
2021/12/24 11:45:31;;;;;;;19.35;9.35;;;4.90;99.90;;;;;;5031503;28;20107;-84
2021/12/24 11:47:57;;;;;;;11.45;6.88;;;5.00;99.90;;;;;;5048077;28;20132;-84
2021/12/24 11:50:24;;;;;;;18.75;8.70;;;5.00;99.90;;;;;;5048079;28;20103;-80
2021/12/24 11:52:53;;;;;;;22.80;9.10;;;5.00;99.90;;;;;;5048018;28;20041;-83
2021/12/24 11:55:20;;;;;;;20.25;9.40;;;5.00;99.90;;;;;;5048367;28;20469;-83
2021/12/24 11:57:51;;;;;;;18.00;8.30;;;4.90;99.90;;;;;;5031360;28;20059;-84
2021/12/24 12:00:22;;;;;;;16.27;9.07;;;4.90;99.90;;;;;;5030781;28;20046;-84
2021/12/24 12:02:50;;;;;;;20.73;9.68;;;4.90;99.90;;;;;;5047075;28;20167;-84
2021/12/24 12:05:28;;;;;;;18.95;9.02;;;4.90;99.90;;;;;;5014893;28;20041;-84
2021/12/24 12:08:14;;;;;;;18.60;8.77;;;4.80;99.90;;;;;;5031289;28;20541;-82
2021/12/24 12:10:52;;;;;;;16.73;9.32;;;4.90;99.90;;;;;;5030222;28;20077;-79
2021/12/24 12:13:37;;;;;;;22.38;11.13;;;5.00;99.90;;;;;;5031342;28;20094;-84
2021/12/24 12:16:04;;;;;;;21.88;10.40;;;5.00;99.90;;;;;;5029556;28;20042;-84
2021/12/24 12:18:33;;;;;;;18.70;9.73;;;5.10;99.90;;;;;;5031359;28;20073;-83
2021/12/24 12:21:23;;;;;;;16.20;8.52;;;5.10;99.90;;;;;;5015209;28;20543;-84
2021/12/24 12:26:43;;;;;;;17.10;9.02;;;5.00;99.90;;;;;;5031308;28;20423;-84
2021/12/24 12:29:44;;;;;;;15.63;7.78;;;5.10;99.90;;;;;;5014821;28;20103;-79
2021/12/24 12:32:13;;;;;;;17.60;8.65;;;5.20;99.90;;;;;;5030618;28;20100;-84
2021/12/24 12:34:39;;;;;;;12.10;6.80;;;5.30;99.90;;;;;;5031068;28;20128;-80
2021/12/24 12:37:11;;;;;;;12.48;8.07;;;5.20;99.90;;;;;;5047553;28;20152;-79
2021/12/24 12:39:38;;;;;;;10.55;6.53;;;5.20;99.90;;;;;;5033937;28;20380;-85
2021/12/24 12:42:04;;;;;;;10.23;6.72;;;5.30;99.90;;;;;;5051122;28;20099;-84
2021/12/24 12:44:32;;;;;;;13.80;7.80;;;5.40;99.90;;;;;;5051083;28;20057;-84
2021/12/24 12:47:22;;;;;;;16.83;8.88;;;5.40;99.90;;;;;;5036283;28;20049;-85
2021/12/24 12:49:52;;;;;;;17.73;9.05;;;5.40;99.90;;;;;;5046123;28;20060;-84
2021/12/24 12:52:20;;;;;;;18.95;9.48;;;5.50;99.90;;;;;;5034665;28;20401;-80
2021/12/24 12:54:48;;;;;;;13.82;7.25;;;5.50;99.90;;;;;;5034103;28;20098;-80
2021/12/24 12:57:25;;;;;;;14.18;7.55;;;5.40;99.90;;;;;;5017084;28;20450;-84
2021/12/24 13:00:21;;;;;;;12.05;6.93;;;5.30;99.90;;;;;;5034322;28;20413;-80
2021/12/24 13:05:32;;;;;;;13.13;6.43;;;5.40;99.90;;;;;;5027283;28;20565;-80
2021/12/24 13:08:10;;;;;;;10.73;6.05;;;5.50;99.90;;;;;;5050693;28;20050;-84
2021/12/24 13:10:37;;;;;;;13.75;6.78;;;5.60;99.90;;;;;;5043557;28;20124;-80
2021/12/24 13:13:04;;;;;;;11.32;6.20;;;5.50;99.90;;;;;;5017693;28;20052;-79
2021/12/24 13:15:33;;;;;;;11.15;5.85;;;5.40;99.90;;;;;;5034485;28;20041;-84
2021/12/24 13:18:05;;;;;;;11.82;5.78;;;5.40;99.90;;;;;;5050820;28;20064;-79
2021/12/24 13:20:55;;;;;;;10.90;5.90;;;5.50;99.90;;;;;;5035421;28;20072;-80
2021/12/24 13:23:21;;;;;;;10.98;6.47;;;5.40;99.90;;;;;;5020613;28;20053;-79
2021/12/24 13:25:46;;;;;;;10.50;6.22;;;5.50;99.90;;;;;;5050668;28;20050;-80
2021/12/24 13:28:12;;;;;;;9.15;5.63;;;5.60;99.90;;;;;;5017595;28;20048;-79
2021/12/24 13:30:38;;;;;;;8.57;4.82;;;5.40;99.90;;;;;;5050758;28;20045;-84
2021/12/24 13:33:07;;;;;;;8.05;4.75;;;5.40;99.90;;;;;;5050750;28;20088;-84
2021/12/24 13:35:49;;;;;;;12.23;6.13;;;5.40;99.90;;;;;;5034167;28;20416;-80
2021/12/24 13:38:29;;;;;;;11.52;4.55;;;5.40;99.90;;;;;;5033710;28;20484;-80
2021/12/24 13:40:56;;;;;;;7.25;4.55;;;5.50;99.90;;;;;;5017251;28;20061;-85
2021/12/24 13:43:23;;;;;;;6.10;3.10;;;5.50;99.90;;;;;;5017069;28;20041;-84
2021/12/24 13:45:51;;;;;;;6.45;3.90;;;5.50;99.90;;;;;;5017122;28;20528;-84
2021/12/24 13:48:26;;;;;;;5.40;3.00;;;5.50;99.90;;;;;;5033780;28;20045;-80
2021/12/24 13:56:24;;;;;;;6.55;2.60;;;5.50;99.90;;;;;;5033462;28;20081;-84
2021/12/24 13:58:50;;;;;;;2.90;1.77;;;5.40;99.90;;;;;;5016777;28;20049;-80
2021/12/24 14:01:16;;;;;;;4.50;1.63;;;5.40;99.90;;;;;;5000959;28;20571;-84
2021/12/24 14:03:42;;;;;;;2.38;1.05;;;5.40;99.90;;;;;;5049915;28;20128;-84
2021/12/24 14:06:08;;;;;;;4.15;1.83;;;5.30;99.90;;;;;;5031955;28;20442;-83
2021/12/24 14:08:37;;;;;;;4.40;2.28;;;5.30;99.90;;;;;;5031549;28;20488;-84
2021/12/24 14:11:20;;;;;;;10.02;3.65;;;5.40;99.90;;;;;;5015402;28;20176;-80
2021/12/24 14:13:55;;;;;;;3.78;2.30;;;5.30;99.90;;;;;;5047592;28;20076;-79
2021/12/24 14:19:08;;;;;;;;;;;5.30;99.90;;;;;;5031767;28;20054;-84
2021/12/24 14:21:47;;;;;;;3.60;0.40;;;5.20;99.90;;;;;;5031626;28;20303;-79
2021/12/24 14:24:19;;;;;;;6.15;0.60;;;5.00;99.90;;;;;;5031601;28;20184;-79
2021/12/24 14:26:56;;;;;;;3.67;0.50;;;5.10;99.90;;;;;;5013411;28;20044;-79
2021/12/24 14:29:30;;;;;;;5.55;0.50;;;5.00;99.90;;;;;;5014610;28;20041;-79
2021/12/24 14:32:00;;;;;;;2.90;1.38;;;4.90;99.90;;;;;;5047782;28;20077;-84
2021/12/24 14:34:39;;;;;;;3.78;0.98;;;4.90;99.90;;;;;;5047732;28;20083;-80
2021/12/24 14:37:16;;;;;;;2.58;0.55;;;4.70;99.90;;;;;;5031353;28;20052;-84
2021/12/24 14:39:48;;;;;;;7.40;0.75;;;4.70;99.90;;;;;;5030982;28;20384;-80
2021/12/24 14:42:19;;;;;;;3.27;0.97;;;4.70;99.90;;;;;;5014680;28;20061;-84
2021/12/24 14:44:46;;;;;;;2.20;0.45;;;4.70;99.90;;;;;;5030976;28;20049;-83
2021/12/24 14:47:18;;;;;;;2.38;0.22;;;4.60;99.90;;;;;;5028536;28;20415;-84
2021/12/24 14:49:44;;;;;;;4.15;0.47;;;4.60;99.90;;;;;;5047228;28;20120;-84
2021/12/24 14:52:19;;;;;;;4.95;0.30;;;4.70;99.90;;;;;;5013139;28;20140;-79
2021/12/24 14:55:12;;;;;;;2.17;0.45;;;4.50;99.90;;;;;;5012457;28;20042;-84
2021/12/24 14:57:54;;;;;;;4.03;0.47;;;4.50;99.90;;;;;;5012221;28;20128;-80
2021/12/24 15:00:30;;;;;;;5.70;0.80;;;4.40;99.90;;;;;;5029166;28;20526;-84
2021/12/24 15:02:55;;;;;;;7.50;1.02;;;4.50;99.90;;;;;;5030441;28;20042;-84
2021/12/24 15:05:37;;;;;;;3.42;0.47;;;4.50;99.90;;;;;;5030208;28;20083;-84